Carcassonne Airport

LFMK · Occitanie, 法国

罗盘
风向 的 风向 280° Carcassonne Airport 10/28
风: 7 kt, 3 beaufort

7 kt

改变
0 1.000 2.000 3.000 4.000 5.000
BKN 1.000 ft
OVC 1.400 ft
METAR LFBO 060330Z AUTO 28007KT 9999 BKN010 OVC014 16/15 Q1029 NOSIG

METAR Carcassonne Airport - LFMK/CCF

Carcassonne Airport是Carcassonne/Salvaza,法国中的中型机场。 该机场有2条跑道: 10/28 和 9/27. 该领域的国际民航组织标志是LFMK 它的国际航空运输协会代码是CCF.

这份报告是针对2022年10月6日 05:30, 当地时间在Toulouse-Blagnac Airport进行的。

机场观察

风向为280°,速度为7 kt。

可见度为10 km 或者更多。

有碎云在1.000 ft的高度 和 乌云密布在1.400 ft的高度。 破损或更高的上限为1.000 ft。

温度和风寒是16 °C。 露点为15 °C,相对湿度为94%。 海平面上的气压为1029 hPa (QNH)。

白天

今天,太阳从07:53升起,在19:23降落。 这适用于Carcassonne Airport,世界夏令时可能有所不同。 当地时间与世界标准时间之间的时差为+2 小时。 夏令时目前正在进行中。

公司介绍

在这个机场,你可以找到飞行俱乐部。 本场上唯一已知的公司是Aéroclub de Pilotes Audois。

体会

到Vliegles.nl去找飞行课程,跳伞和其他飞行体验。 浏览页面,了解Carcassonne Airport附近所有可用的活动。 你也可以使用搜索功能来寻找你所在地附近的特定飞行课程、跳伞或其他飞行体验。

跑道

Id 标题 侧风 逆风 侧风 %
10/28 097°-277° 7 kt 5 %
9/27 097°-277° 7 kt 5 %

逆风成分最大的方向会被突出显示,并用于横风计算。 这并不一定意味着这个方向在使用。

乌云

1.000 ft BKN 碎云
1.400 ft OVC 乌云密布

温度 & 天气

温度 16 °C
露点 15 °C
相对湿度 94%
Kp-index 1 (0-9)

白天

日出
07:57 (2h 08m)
中午
13:42
日落
19:27

小工具

你想在你的网站上有一个关于Carcassonne Airport的当前航空天气(METAR)的小部件吗?

</> 显示HTML代码

我们和第三方通过cookies跟踪您在我们网站上的上网行为。如果您继续,我们认为您同意我们的cookie政策。 了解更多